sensor_id;sensor_type;location;lat;lon;timestamp;temperature;humidity
75489;HTU21D;64069;46.396;48.102;2022-11-20T00:00:26;5.32;92.88
75489;HTU21D;64069;46.396;48.102;2022-11-20T00:02:52;5.32;92.88
75489;HTU21D;64069;46.396;48.102;2022-11-20T00:05:18;5.32;92.95
75489;HTU21D;64069;46.396;48.102;2022-11-20T00:07:45;5.31;93.04
75489;HTU21D;64069;46.396;48.102;2022-11-20T00:10:10;5.28;93.14
75489;HTU21D;64069;46.396;48.102;2022-11-20T00:12:36;5.30;93.21
75489;HTU21D;64069;46.396;48.102;2022-11-20T00:15:03;5.31;93.30
75489;HTU21D;64069;46.396;48.102;2022-11-20T00:17:30;5.31;93.36
75489;HTU21D;64069;46.396;48.102;2022-11-20T00:19:55;5.31;93.42
75489;HTU21D;64069;46.396;48.102;2022-11-20T00:22:21;5.32;93.52
75489;HTU21D;64069;46.396;48.102;2022-11-20T00:24:47;5.27;93.64
75489;HTU21D;64069;46.396;48.102;2022-11-20T00:27:13;5.28;93.71
75489;HTU21D;64069;46.396;48.102;2022-11-20T00:29:39;5.28;93.76
75489;HTU21D;64069;46.396;48.102;2022-11-20T00:32:05;5.27;93.85
75489;HTU21D;64069;46.396;48.102;2022-11-20T00:34:31;5.26;93.90
75489;HTU21D;64069;46.396;48.102;2022-11-20T00:36:57;5.30;93.92
75489;HTU21D;64069;46.396;48.102;2022-11-20T00:39:23;5.33;93.89
75489;HTU21D;64069;46.396;48.102;2022-11-20T00:41:49;5.36;93.86
75489;HTU21D;64069;46.396;48.102;2022-11-20T00:44:15;5.41;93.82
75489;HTU21D;64069;46.396;48.102;2022-11-20T00:46:41;5.45;93.80
75489;HTU21D;64069;46.396;48.102;2022-11-20T00:49:07;5.47;93.85
75489;HTU21D;64069;46.396;48.102;2022-11-20T00:51:33;5.52;93.81
75489;HTU21D;64069;46.396;48.102;2022-11-20T00:53:59;5.56;93.77
75489;HTU21D;64069;46.396;48.102;2022-11-20T00:56:25;5.61;93.74
75489;HTU21D;64069;46.396;48.102;2022-11-20T00:58:51;5.65;93.72
75489;HTU21D;64069;46.396;48.102;2022-11-20T01:01:22;5.69;93.66
75489;HTU21D;64069;46.396;48.102;2022-11-20T01:03:50;5.71;93.65
75489;HTU21D;64069;46.396;48.102;2022-11-20T01:06:19;5.75;93.64
75489;HTU21D;64069;46.396;48.102;2022-11-20T01:08:46;5.78;93.62
75489;HTU21D;64069;46.396;48.102;2022-11-20T01:11:20;5.81;93.62
75489;HTU21D;64069;46.396;48.102;2022-11-20T01:13:48;5.83;93.61
75489;HTU21D;64069;46.396;48.102;2022-11-20T01:18:44;5.83;93.62
75489;HTU21D;64069;46.396;48.102;2022-11-20T01:21:22;5.81;93.69
75489;HTU21D;64069;46.396;48.102;2022-11-20T01:23:49;5.79;93.76
75489;HTU21D;64069;46.396;48.102;2022-11-20T01:26:21;5.75;93.87
75489;HTU21D;64069;46.396;48.102;2022-11-20T01:28:48;5.72;93.95
75489;HTU21D;64069;46.396;48.102;2022-11-20T01:31:19;5.70;94.01
75489;HTU21D;64069;46.396;48.102;2022-11-20T01:33:47;5.68;94.08
75489;HTU21D;64069;46.396;48.102;2022-11-20T01:36:14;5.67;94.15
75489;HTU21D;64069;46.396;48.102;2022-11-20T01:38:41;5.70;94.13
75489;HTU21D;64069;46.396;48.102;2022-11-20T01:41:07;5.72;94.09
75489;HTU21D;64069;46.396;48.102;2022-11-20T01:43:34;5.74;94.07
75489;HTU21D;64069;46.396;48.102;2022-11-20T01:46:13;5.71;94.10
75489;HTU21D;64069;46.396;48.102;2022-11-20T01:49:00;5.72;94.07
75489;HTU21D;64069;46.396;48.102;2022-11-20T01:51:37;5.75;94.04
75489;HTU21D;64069;46.396;48.102;2022-11-20T01:54:12;5.74;94.01
75489;HTU21D;64069;46.396;48.102;2022-11-20T01:56:43;5.75;94.02
75489;HTU21D;64069;46.396;48.102;2022-11-20T01:59:11;5.76;93.99
75489;HTU21D;64069;46.396;48.102;2022-11-20T02:01:38;5.76;93.98
75489;HTU21D;64069;46.396;48.102;2022-11-20T02:04:05;5.75;94.01
75489;HTU21D;64069;46.396;48.102;2022-11-20T02:06:40;5.72;94.08
75489;HTU21D;64069;46.396;48.102;2022-11-20T02:09:08;5.72;94.11
75489;HTU21D;64069;46.396;48.102;2022-11-20T02:11:34;5.69;94.15
75489;HTU21D;64069;46.396;48.102;2022-11-20T02:14:00;5.72;94.17
75489;HTU21D;64069;46.396;48.102;2022-11-20T02:16:31;5.76;94.16
75489;HTU21D;64069;46.396;48.102;2022-11-20T02:19:00;5.77;94.11
75489;HTU21D;64069;46.396;48.102;2022-11-20T02:21:48;5.81;94.06
75489;HTU21D;64069;46.396;48.102;2022-11-20T02:24:18;5.84;94.03
75489;HTU21D;64069;46.396;48.102;2022-11-20T02:27:02;5.87;94.01
75489;HTU21D;64069;46.396;48.102;2022-11-20T02:30:00;5.92;93.99
75489;HTU21D;64069;46.396;48.102;2022-11-20T02:32:33;5.93;93.95
75489;HTU21D;64069;46.396;48.102;2022-11-20T02:37:48;5.95;93.99
75489;HTU21D;64069;46.396;48.102;2022-11-20T02:40:16;5.95;94.04
75489;HTU21D;64069;46.396;48.102;2022-11-20T02:42:41;5.99;94.09
75489;HTU21D;64069;46.396;48.102;2022-11-20T02:45:08;6.00;94.12
75489;HTU21D;64069;46.396;48.102;2022-11-20T02:47:34;6.02;94.16
75489;HTU21D;64069;46.396;48.102;2022-11-20T02:50:00;6.04;94.20
75489;HTU21D;64069;46.396;48.102;2022-11-20T02:52:26;6.07;94.21
75489;HTU21D;64069;46.396;48.102;2022-11-20T02:54:52;6.10;94.26
75489;HTU21D;64069;46.396;48.102;2022-11-20T02:57:18;6.12;94.27
75489;HTU21D;64069;46.396;48.102;2022-11-20T02:59:44;6.12;94.31
75489;HTU21D;64069;46.396;48.102;2022-11-20T03:02:10;6.14;94.35
75489;HTU21D;64069;46.396;48.102;2022-11-20T03:04:36;6.13;94.37
75489;HTU21D;64069;46.396;48.102;2022-11-20T03:07:02;6.15;94.40
75489;HTU21D;64069;46.396;48.102;2022-11-20T03:09:29;6.16;94.47
75489;HTU21D;64069;46.396;48.102;2022-11-20T03:11:55;6.19;94.52
75489;HTU21D;64069;46.396;48.102;2022-11-20T03:14:21;6.20;94.54
75489;HTU21D;64069;46.396;48.102;2022-11-20T03:16:47;6.22;94.59
75489;HTU21D;64069;46.396;48.102;2022-11-20T03:19:13;6.21;94.69
75489;HTU21D;64069;46.396;48.102;2022-11-20T03:21:39;6.24;94.73
75489;HTU21D;64069;46.396;48.102;2022-11-20T03:24:05;6.27;94.75
75489;HTU21D;64069;46.396;48.102;2022-11-20T03:26:31;6.27;94.78
75489;HTU21D;64069;46.396;48.102;2022-11-20T03:28:59;6.30;94.78
75489;HTU21D;64069;46.396;48.102;2022-11-20T03:31:33;6.33;94.83
75489;HTU21D;64069;46.396;48.102;2022-11-20T03:34:00;6.35;94.88
75489;HTU21D;64069;46.396;48.102;2022-11-20T03:36:28;6.38;94.88
75489;HTU21D;64069;46.396;48.102;2022-11-20T03:38:55;6.42;94.93
75489;HTU21D;64069;46.396;48.102;2022-11-20T03:41:24;6.45;94.96
75489;HTU21D;64069;46.396;48.102;2022-11-20T03:43:51;6.50;94.99
75489;HTU21D;64069;46.396;48.102;2022-11-20T03:46:17;6.54;95.04
75489;HTU21D;64069;46.396;48.102;2022-11-20T03:48:43;6.59;95.11
75489;HTU21D;64069;46.396;48.102;2022-11-20T03:51:13;6.66;95.21
75489;HTU21D;64069;46.396;48.102;2022-11-20T03:53:41;6.72;95.23
75489;HTU21D;64069;46.396;48.102;2022-11-20T03:56:08;6.78;95.26
75489;HTU21D;64069;46.396;48.102;2022-11-20T03:58:35;6.83;95.30
75489;HTU21D;64069;46.396;48.102;2022-11-20T04:01:13;6.86;95.33
75489;HTU21D;64069;46.396;48.102;2022-11-20T04:03:40;6.89;95.34
75489;HTU21D;64069;46.396;48.102;2022-11-20T04:06:09;6.91;95.26
75489;HTU21D;64069;46.396;48.102;2022-11-20T04:08:36;6.97;95.34
75489;HTU21D;64069;46.396;48.102;2022-11-20T04:13:41;7.07;95.46
75489;HTU21D;64069;46.396;48.102;2022-11-20T04:16:09;7.12;95.49
75489;HTU21D;64069;46.396;48.102;2022-11-20T04:18:35;7.15;95.52
75489;HTU21D;64069;46.396;48.102;2022-11-20T04:21:02;7.19;95.52
75489;HTU21D;64069;46.396;48.102;2022-11-20T04:23:28;7.24;95.60
75489;HTU21D;64069;46.396;48.102;2022-11-20T04:25:54;7.27;95.67
75489;HTU21D;64069;46.396;48.102;2022-11-20T04:28:20;7.27;95.76
75489;HTU21D;64069;46.396;48.102;2022-11-20T04:30:46;7.30;95.81
75489;HTU21D;64069;46.396;48.102;2022-11-20T04:33:12;7.32;95.84
75489;HTU21D;64069;46.396;48.102;2022-11-20T04:35:42;7.37;95.87
75489;HTU21D;64069;46.396;48.102;2022-11-20T04:38:08;7.41;95.90
75489;HTU21D;64069;46.396;48.102;2022-11-20T04:40:34;7.45;95.93
75489;HTU21D;64069;46.396;48.102;2022-11-20T04:43:00;7.48;95.95
75489;HTU21D;64069;46.396;48.102;2022-11-20T04:45:26;7.54;96.03
75489;HTU21D;64069;46.396;48.102;2022-11-20T04:47:52;7.60;96.17
75489;HTU21D;64069;46.396;48.102;2022-11-20T04:50:18;7.63;96.17
75489;HTU21D;64069;46.396;48.102;2022-11-20T04:52:44;7.68;96.21
75489;HTU21D;64069;46.396;48.102;2022-11-20T04:55:10;7.74;96.27
75489;HTU21D;64069;46.396;48.102;2022-11-20T04:57:36;7.82;96.26
75489;HTU21D;64069;46.396;48.102;2022-11-20T05:00:03;7.88;96.26
75489;HTU21D;64069;46.396;48.102;2022-11-20T05:02:30;7.94;96.23
75489;HTU21D;64069;46.396;48.102;2022-11-20T05:04:56;8.02;96.21
75489;HTU21D;64069;46.396;48.102;2022-11-20T05:07:22;8.08;96.20
75489;HTU21D;64069;46.396;48.102;2022-11-20T05:09:48;8.16;96.23
75489;HTU21D;64069;46.396;48.102;2022-11-20T05:12:14;8.22;96.21
75489;HTU21D;64069;46.396;48.102;2022-11-20T05:14:40;8.30;96.23
75489;HTU21D;64069;46.396;48.102;2022-11-20T05:17:10;8.41;96.22
75489;HTU21D;64069;46.396;48.102;2022-11-20T05:19:36;8.50;96.14
75489;HTU21D;64069;46.396;48.102;2022-11-20T05:22:02;8.57;96.12
75489;HTU21D;64069;46.396;48.102;2022-11-20T05:24:27;8.63;96.10
75489;HTU21D;64069;46.396;48.102;2022-11-20T05:26:53;8.65;96.10
75489;HTU21D;64069;46.396;48.102;2022-11-20T05:29:19;8.70;96.23
75489;HTU21D;64069;46.396;48.102;2022-11-20T05:31:45;8.77;96.27
75489;HTU21D;64069;46.396;48.102;2022-11-20T05:34:11;8.83;96.29
75489;HTU21D;64069;46.396;48.102;2022-11-20T05:36:37;8.87;96.33
75489;HTU21D;64069;46.396;48.102;2022-11-20T05:39:03;8.91;96.37
75489;HTU21D;64069;46.396;48.102;2022-11-20T05:41:29;8.96;96.42
75489;HTU21D;64069;46.396;48.102;2022-11-20T05:43:56;9.07;96.46
75489;HTU21D;64069;46.396;48.102;2022-11-20T05:46:22;9.20;96.47
75489;HTU21D;64069;46.396;48.102;2022-11-20T05:48:48;9.33;96.36
75489;HTU21D;64069;46.396;48.102;2022-11-20T05:51:17;9.44;96.26
75489;HTU21D;64069;46.396;48.102;2022-11-20T05:53:43;9.55;96.22
75489;HTU21D;64069;46.396;48.102;2022-11-20T05:56:15;9.67;96.13
75489;HTU21D;64069;46.396;48.102;2022-11-20T05:58:41;9.71;96.04
75489;HTU21D;64069;46.396;48.102;2022-11-20T06:01:13;9.68;96.11
75489;HTU21D;64069;46.396;48.102;2022-11-20T06:03:40;9.69;96.21
75489;HTU21D;64069;46.396;48.102;2022-11-20T06:06:08;9.69;96.29
75489;HTU21D;64069;46.396;48.102;2022-11-20T06:08:34;9.75;96.37
75489;HTU21D;64069;46.396;48.102;2022-11-20T06:11:05;9.85;96.26
75489;HTU21D;64069;46.396;48.102;2022-11-20T06:13:32;9.95;96.18
75489;HTU21D;64069;46.396;48.102;2022-11-20T06:15:58;10.06;96.01
75489;HTU21D;64069;46.396;48.102;2022-11-20T06:18:26;10.14;95.90
75489;HTU21D;64069;46.396;48.102;2022-11-20T06:21:07;10.22;95.78
75489;HTU21D;64069;46.396;48.102;2022-11-20T06:23:34;10.35;95.75
75489;HTU21D;64069;46.396;48.102;2022-11-20T06:26:11;10.52;95.54
75489;HTU21D;64069;46.396;48.102;2022-11-20T06:28:38;10.55;95.36
75489;HTU21D;64069;46.396;48.102;2022-11-20T06:31:05;10.54;95.39
75489;HTU21D;64069;46.396;48.102;2022-11-20T06:33:31;10.58;95.49
75489;HTU21D;64069;46.396;48.102;2022-11-20T06:36:01;10.69;95.41
75489;HTU21D;64069;46.396;48.102;2022-11-20T06:38:28;10.82;95.26
75489;HTU21D;64069;46.396;48.102;2022-11-20T06:40:54;10.93;95.14
75489;HTU21D;64069;46.396;48.102;2022-11-20T06:43:21;11.15;94.91
75489;HTU21D;64069;46.396;48.102;2022-11-20T06:45:55;11.30;94.50
75489;HTU21D;64069;46.396;48.102;2022-11-20T06:48:22;11.40;94.33
75489;HTU21D;64069;46.396;48.102;2022-11-20T06:50:48;11.51;94.14
75489;HTU21D;64069;46.396;48.102;2022-11-20T06:53:15;11.58;93.95
75489;HTU21D;64069;46.396;48.102;2022-11-20T06:55:45;11.62;93.85
75489;HTU21D;64069;46.396;48.102;2022-11-20T06:58:12;11.64;93.75
75489;HTU21D;64069;46.396;48.102;2022-11-20T07:00:38;11.69;93.70
75489;HTU21D;64069;46.396;48.102;2022-11-20T07:03:05;11.76;93.65
75489;HTU21D;64069;46.396;48.102;2022-11-20T07:05:31;11.86;93.48
75489;HTU21D;64069;46.396;48.102;2022-11-20T07:07:57;11.93;93.35
75489;HTU21D;64069;46.396;48.102;2022-11-20T07:10:27;12.00;93.25
75489;HTU21D;64069;46.396;48.102;2022-11-20T07:12:53;12.05;93.08
75489;HTU21D;64069;46.396;48.102;2022-11-20T07:15:21;12.07;93.04
75489;HTU21D;64069;46.396;48.102;2022-11-20T07:17:48;12.13;92.95
75489;HTU21D;64069;46.396;48.102;2022-11-20T07:20:14;12.16;92.96
75489;HTU21D;64069;46.396;48.102;2022-11-20T07:22:40;12.21;92.86
75489;HTU21D;64069;46.396;48.102;2022-11-20T07:25:06;12.28;92.73
75489;HTU21D;64069;46.396;48.102;2022-11-20T07:27:37;12.30;92.65
75489;HTU21D;64069;46.396;48.102;2022-11-20T07:30:03;12.31;92.63
75489;HTU21D;64069;46.396;48.102;2022-11-20T07:32:30;12.28;92.62
75489;HTU21D;64069;46.396;48.102;2022-11-20T07:34:55;12.30;92.69
75489;HTU21D;64069;46.396;48.102;2022-11-20T07:37:21;12.33;92.60
75489;HTU21D;64069;46.396;48.102;2022-11-20T07:39:47;12.32;92.56
75489;HTU21D;64069;46.396;48.102;2022-11-20T07:42:13;12.33;92.51
75489;HTU21D;64069;46.396;48.102;2022-11-20T07:44:39;12.36;92.52
75489;HTU21D;64069;46.396;48.102;2022-11-20T07:47:06;12.34;92.50
75489;HTU21D;64069;46.396;48.102;2022-11-20T07:49:32;12.33;92.63
75489;HTU21D;64069;46.396;48.102;2022-11-20T07:51:58;12.38;92.69
75489;HTU21D;64069;46.396;48.102;2022-11-20T07:54:24;12.52;92.53
75489;HTU21D;64069;46.396;48.102;2022-11-20T07:56:51;12.66;92.14
75489;HTU21D;64069;46.396;48.102;2022-11-20T07:59:17;12.77;91.89
75489;HTU21D;64069;46.396;48.102;2022-11-20T08:01:42;12.91;91.65
75489;HTU21D;64069;46.396;48.102;2022-11-20T08:04:09;13.04;91.35
75489;HTU21D;64069;46.396;48.102;2022-11-20T08:06:36;13.16;91.03
75489;HTU21D;64069;46.396;48.102;2022-11-20T08:09:02;13.25;90.84
75489;HTU21D;64069;46.396;48.102;2022-11-20T08:11:28;13.33;90.69
75489;HTU21D;64069;46.396;48.102;2022-11-20T08:14:12;13.37;90.53
75489;HTU21D;64069;46.396;48.102;2022-11-20T08:16:43;13.44;90.39
75489;HTU21D;64069;46.396;48.102;2022-11-20T08:19:10;13.55;90.28
75489;HTU21D;64069;46.396;48.102;2022-11-20T08:21:36;13.67;89.99
75489;HTU21D;64069;46.396;48.102;2022-11-20T08:24:02;13.69;89.74
75489;HTU21D;64069;46.396;48.102;2022-11-20T08:26:28;13.67;89.76
75489;HTU21D;64069;46.396;48.102;2022-11-20T08:28:57;13.71;89.72
75489;HTU21D;64069;46.396;48.102;2022-11-20T08:31:25;13.70;89.54
75489;HTU21D;64069;46.396;48.102;2022-11-20T08:33:51;13.69;89.51
75489;HTU21D;64069;46.396;48.102;2022-11-20T08:36:18;13.73;89.38
75489;HTU21D;64069;46.396;48.102;2022-11-20T08:38:52;13.75;89.22
75489;HTU21D;64069;46.396;48.102;2022-11-20T08:41:19;13.80;89.12
75489;HTU21D;64069;46.396;48.102;2022-11-20T08:43:56;13.82;88.99
75489;HTU21D;64069;46.396;48.102;2022-11-20T08:46:27;13.84;88.96
75489;HTU21D;64069;46.396;48.102;2022-11-20T08:48:54;13.86;88.82
75489;HTU21D;64069;46.396;48.102;2022-11-20T08:51:20;13.86;88.76
75489;HTU21D;64069;46.396;48.102;2022-11-20T08:53:46;13.85;88.80
75489;HTU21D;64069;46.396;48.102;2022-11-20T08:56:14;13.81;88.78
75489;HTU21D;64069;46.396;48.102;2022-11-20T08:58:40;13.74;88.78
75489;HTU21D;64069;46.396;48.102;2022-11-20T09:01:06;13.65;88.82
75489;HTU21D;64069;46.396;48.102;2022-11-20T09:03:33;13.64;88.92
75489;HTU21D;64069;46.396;48.102;2022-11-20T09:06:04;13.62;88.81
75489;HTU21D;64069;46.396;48.102;2022-11-20T09:08:31;13.58;88.78
75489;HTU21D;64069;46.396;48.102;2022-11-20T09:10:58;13.54;88.73
75489;HTU21D;64069;46.396;48.102;2022-11-20T09:13:26;13.51;88.83
75489;HTU21D;64069;46.396;48.102;2022-11-20T09:15:57;13.51;88.88
75489;HTU21D;64069;46.396;48.102;2022-11-20T09:18:24;13.48;88.83
75489;HTU21D;64069;46.396;48.102;2022-11-20T09:20:50;13.43;88.80
75489;HTU21D;64069;46.396;48.102;2022-11-20T09:23:16;13.39;88.78
75489;HTU21D;64069;46.396;48.102;2022-11-20T09:25:47;13.36;88.74
75489;HTU21D;64069;46.396;48.102;2022-11-20T09:28:13;13.37;88.72
75489;HTU21D;64069;46.396;48.102;2022-11-20T09:30:39;13.40;88.62
75489;HTU21D;64069;46.396;48.102;2022-11-20T09:33:06;13.40;88.54
75489;HTU21D;64069;46.396;48.102;2022-11-20T09:35:33;13.43;88.45
75489;HTU21D;64069;46.396;48.102;2022-11-20T09:38:04;13.47;88.35
75489;HTU21D;64069;46.396;48.102;2022-11-20T09:40:35;13.50;88.25
75489;HTU21D;64069;46.396;48.102;2022-11-20T09:46:21;13.60;87.99
75489;HTU21D;64069;46.396;48.102;2022-11-20T09:54:17;13.75;87.69
75489;HTU21D;64069;46.396;48.102;2022-11-20T09:56:56;13.83;87.57
75489;HTU21D;64069;46.396;48.102;2022-11-20T09:59:40;13.94;87.35
75489;HTU21D;64069;46.396;48.102;2022-11-20T10:05:28;14.06;87.09
75489;HTU21D;64069;46.396;48.102;2022-11-20T10:21:53;14.06;86.75
75489;HTU21D;64069;46.396;48.102;2022-11-20T10:24:48;14.09;86.67
75489;HTU21D;64069;46.396;48.102;2022-11-20T10:30:15;14.23;86.09
75489;HTU21D;64069;46.396;48.102;2022-11-20T10:32:44;14.28;85.66
75489;HTU21D;64069;46.396;48.102;2022-11-20T10:35:22;14.35;85.26
75489;HTU21D;64069;46.396;48.102;2022-11-20T10:37:56;14.41;84.97
75489;HTU21D;64069;46.396;48.102;2022-11-20T10:40:55;14.48;84.52
75489;HTU21D;64069;46.396;48.102;2022-11-20T10:43:46;14.54;84.26
75489;HTU21D;64069;46.396;48.102;2022-11-20T10:46:21;14.54;83.68
75489;HTU21D;64069;46.396;48.102;2022-11-20T10:48:50;14.62;83.52
75489;HTU21D;64069;46.396;48.102;2022-11-20T10:54:35;14.80;82.81
75489;HTU21D;64069;46.396;48.102;2022-11-20T10:57:15;14.77;82.42
75489;HTU21D;64069;46.396;48.102;2022-11-20T10:59:55;14.71;82.69
75489;HTU21D;64069;46.396;48.102;2022-11-20T11:08:14;14.42;83.50
75489;HTU21D;64069;46.396;48.102;2022-11-20T11:13:26;14.42;82.90
75489;HTU21D;64069;46.396;48.102;2022-11-20T11:15:53;14.41;82.78
75489;HTU21D;64069;46.396;48.102;2022-11-20T11:18:30;14.39;82.58
75489;HTU21D;64069;46.396;48.102;2022-11-20T11:20:59;14.37;82.52
75489;HTU21D;64069;46.396;48.102;2022-11-20T11:23:34;14.35;82.27
75489;HTU21D;64069;46.396;48.102;2022-11-20T11:26:17;14.28;82.29
75489;HTU21D;64069;46.396;48.102;2022-11-20T11:28:52;14.29;82.34
75489;HTU21D;64069;46.396;48.102;2022-11-20T11:31:32;14.24;81.93
75489;HTU21D;64069;46.396;48.102;2022-11-20T11:34:13;14.15;81.61
75489;HTU21D;64069;46.396;48.102;2022-11-20T11:36:39;14.06;81.78
75489;HTU21D;64069;46.396;48.102;2022-11-20T11:39:11;13.97;81.80
75489;HTU21D;64069;46.396;48.102;2022-11-20T11:41:39;13.88;82.03
75489;HTU21D;64069;46.396;48.102;2022-11-20T11:44:20;13.83;82.03
75489;HTU21D;64069;46.396;48.102;2022-11-20T11:47:11;13.78;82.07
75489;HTU21D;64069;46.396;48.102;2022-11-20T11:49:46;13.77;82.13
75489;HTU21D;64069;46.396;48.102;2022-11-20T11:52:17;13.75;82.21
75489;HTU21D;64069;46.396;48.102;2022-11-20T11:54:53;13.74;82.21
75489;HTU21D;64069;46.396;48.102;2022-11-20T11:57:28;13.71;82.11
75489;HTU21D;64069;46.396;48.102;2022-11-20T12:00:14;13.73;82.03
75489;HTU21D;64069;46.396;48.102;2022-11-20T12:05:42;13.65;81.77
75489;HTU21D;64069;46.396;48.102;2022-11-20T12:08:44;13.59;81.66
75489;HTU21D;64069;46.396;48.102;2022-11-20T12:16:54;13.36;81.88
75489;HTU21D;64069;46.396;48.102;2022-11-20T12:19:23;13.26;81.86
75489;HTU21D;64069;46.396;48.102;2022-11-20T12:24:56;13.07;82.10
75489;HTU21D;64069;46.396;48.102;2022-11-20T12:30:19;12.79;82.59
75489;HTU21D;64069;46.396;48.102;2022-11-20T12:32:52;12.72;82.69
75489;HTU21D;64069;46.396;48.102;2022-11-20T12:38:59;12.51;82.96
75489;HTU21D;64069;46.396;48.102;2022-11-20T12:53:35;11.96;83.81
75489;HTU21D;64069;46.396;48.102;2022-11-20T12:58:54;11.83;83.91
75489;HTU21D;64069;46.396;48.102;2022-11-20T13:01:40;11.72;84.10
75489;HTU21D;64069;46.396;48.102;2022-11-20T13:04:32;11.61;84.31
75489;HTU21D;64069;46.396;48.102;2022-11-20T13:07:05;11.51;84.48
75489;HTU21D;64069;46.396;48.102;2022-11-20T13:09:33;11.38;84.65
75489;HTU21D;64069;46.396;48.102;2022-11-20T13:17:56;10.90;85.41
75489;HTU21D;64069;46.396;48.102;2022-11-20T13:20:23;10.74;85.68
75489;HTU21D;64069;46.396;48.102;2022-11-20T13:22:51;10.62;85.80
75489;HTU21D;64069;46.396;48.102;2022-11-20T13:27:51;10.43;86.13
75489;HTU21D;64069;46.396;48.102;2022-11-20T13:30:23;10.33;86.24
75489;HTU21D;64069;46.396;48.102;2022-11-20T13:33:20;10.19;86.44
75489;HTU21D;64069;46.396;48.102;2022-11-20T13:38:25;10.04;86.59
75489;HTU21D;64069;46.396;48.102;2022-11-20T13:40:59;9.97;86.78
75489;HTU21D;64069;46.396;48.102;2022-11-20T13:43:47;9.95;86.79
75489;HTU21D;64069;46.396;48.102;2022-11-20T13:46:13;9.85;86.75
75489;HTU21D;64069;46.396;48.102;2022-11-20T13:48:43;9.75;87.05
75489;HTU21D;64069;46.396;48.102;2022-11-20T13:51:28;9.66;87.26
75489;HTU21D;64069;46.396;48.102;2022-11-20T13:59:57;9.41;87.71
75489;HTU21D;64069;46.396;48.102;2022-11-20T14:02:27;9.38;87.73
75489;HTU21D;64069;46.396;48.102;2022-11-20T14:04:57;9.34;87.80
75489;HTU21D;64069;46.396;48.102;2022-11-20T14:07:39;9.29;87.78
75489;HTU21D;64069;46.396;48.102;2022-11-20T14:10:21;9.26;88.00
75489;HTU21D;64069;46.396;48.102;2022-11-20T14:12:47;9.22;87.97
75489;HTU21D;64069;46.396;48.102;2022-11-20T14:15:31;9.18;88.14
75489;HTU21D;64069;46.396;48.102;2022-11-20T14:17:59;9.14;88.07
75489;HTU21D;64069;46.396;48.102;2022-11-20T14:20:28;9.09;88.29
75489;HTU21D;64069;46.396;48.102;2022-11-20T14:22:55;9.05;88.35
75489;HTU21D;64069;46.396;48.102;2022-11-20T14:25:23;9.03;88.44
75489;HTU21D;64069;46.396;48.102;2022-11-20T14:28:00;8.97;88.41
75489;HTU21D;64069;46.396;48.102;2022-11-20T14:30:44;8.91;88.57
75489;HTU21D;64069;46.396;48.102;2022-11-20T14:33:12;8.80;88.64
75489;HTU21D;64069;46.396;48.102;2022-11-20T14:35:47;8.72;88.88
75489;HTU21D;64069;46.396;48.102;2022-11-20T14:38:16;8.70;89.03
75489;HTU21D;64069;46.396;48.102;2022-11-20T14:40:43;8.64;89.04
75489;HTU21D;64069;46.396;48.102;2022-11-20T14:45:52;8.56;89.28
75489;HTU21D;64069;46.396;48.102;2022-11-20T14:48:28;8.51;89.34
75489;HTU21D;64069;46.396;48.102;2022-11-20T14:50:55;8.46;89.35
75489;HTU21D;64069;46.396;48.102;2022-11-20T14:53:25;8.36;89.46
75489;HTU21D;64069;46.396;48.102;2022-11-20T14:56:01;8.31;89.60
75489;HTU21D;64069;46.396;48.102;2022-11-20T14:58:30;8.22;89.60
75489;HTU21D;64069;46.396;48.102;2022-11-20T15:01:05;8.20;89.83
75489;HTU21D;64069;46.396;48.102;2022-11-20T15:03:37;8.18;89.94
75489;HTU21D;64069;46.396;48.102;2022-11-20T15:06:05;8.14;89.83
75489;HTU21D;64069;46.396;48.102;2022-11-20T15:08:32;8.11;89.95
75489;HTU21D;64069;46.396;48.102;2022-11-20T15:10:58;8.03;89.99
75489;HTU21D;64069;46.396;48.102;2022-11-20T15:13:37;7.99;90.16
75489;HTU21D;64069;46.396;48.102;2022-11-20T15:16:09;7.96;90.21
75489;HTU21D;64069;46.396;48.102;2022-11-20T15:18:40;7.90;90.38
75489;HTU21D;64069;46.396;48.102;2022-11-20T15:21:11;7.86;90.35
75489;HTU21D;64069;46.396;48.102;2022-11-20T15:23:37;7.79;90.61
75489;HTU21D;64069;46.396;48.102;2022-11-20T15:26:05;7.75;90.64
75489;HTU21D;64069;46.396;48.102;2022-11-20T15:28:45;7.71;90.68
75489;HTU21D;64069;46.396;48.102;2022-11-20T15:31:22;7.69;90.78
75489;HTU21D;64069;46.396;48.102;2022-11-20T15:33:52;7.72;90.95
75489;HTU21D;64069;46.396;48.102;2022-11-20T15:36:18;7.72;90.85
75489;HTU21D;64069;46.396;48.102;2022-11-20T15:38:44;7.68;90.88
75489;HTU21D;64069;46.396;48.102;2022-11-20T15:41:10;7.64;91.08
75489;HTU21D;64069;46.396;48.102;2022-11-20T15:43:40;7.59;91.10
75489;HTU21D;64069;46.396;48.102;2022-11-20T15:46:18;7.57;91.19
75489;HTU21D;64069;46.396;48.102;2022-11-20T15:48:52;7.52;91.21
75489;HTU21D;64069;46.396;48.102;2022-11-20T15:51:32;7.47;91.33
75489;HTU21D;64069;46.396;48.102;2022-11-20T15:53:59;7.41;91.34
75489;HTU21D;64069;46.396;48.102;2022-11-20T15:56:26;7.34;91.42
75489;HTU21D;64069;46.396;48.102;2022-11-20T15:58:55;7.28;91.56
75489;HTU21D;64069;46.396;48.102;2022-11-20T16:01:22;7.28;91.75
75489;HTU21D;64069;46.396;48.102;2022-11-20T16:03:51;7.29;91.91
75489;HTU21D;64069;46.396;48.102;2022-11-20T16:06:17;7.30;91.92
75489;HTU21D;64069;46.396;48.102;2022-11-20T16:08:43;7.26;91.87
75489;HTU21D;64069;46.396;48.102;2022-11-20T16:11:14;7.22;91.92
75489;HTU21D;64069;46.396;48.102;2022-11-20T16:13:41;7.16;91.99
75489;HTU21D;64069;46.396;48.102;2022-11-20T16:16:32;7.14;92.14
75489;HTU21D;64069;46.396;48.102;2022-11-20T16:19:03;7.13;92.18
75489;HTU21D;64069;46.396;48.102;2022-11-20T16:21:29;7.13;92.29
75489;HTU21D;64069;46.396;48.102;2022-11-20T16:24:05;7.09;92.30
75489;HTU21D;64069;46.396;48.102;2022-11-20T16:26:32;7.12;92.88
75489;HTU21D;64069;46.396;48.102;2022-11-20T16:28:59;7.13;92.63
75489;HTU21D;64069;46.396;48.102;2022-11-20T16:31:25;7.14;92.59
75489;HTU21D;64069;46.396;48.102;2022-11-20T16:33:55;7.17;92.75
75489;HTU21D;64069;46.396;48.102;2022-11-20T16:36:22;7.22;92.88
75489;HTU21D;64069;46.396;48.102;2022-11-20T16:38:53;7.22;92.84
75489;HTU21D;64069;46.396;48.102;2022-11-20T16:41:19;7.19;92.93
75489;HTU21D;64069;46.396;48.102;2022-11-20T16:43:47;7.13;92.86
75489;HTU21D;64069;46.396;48.102;2022-11-20T16:46:18;7.04;92.92
75489;HTU21D;64069;46.396;48.102;2022-11-20T16:49:02;6.93;93.08
75489;HTU21D;64069;46.396;48.102;2022-11-20T16:51:30;6.86;93.22
75489;HTU21D;64069;46.396;48.102;2022-11-20T16:54:04;6.81;93.31
75489;HTU21D;64069;46.396;48.102;2022-11-20T16:56:31;6.79;93.34
75489;HTU21D;64069;46.396;48.102;2022-11-20T16:58:58;6.78;93.43
75489;HTU21D;64069;46.396;48.102;2022-11-20T17:01:25;6.78;93.55
75489;HTU21D;64069;46.396;48.102;2022-11-20T17:04:04;6.72;93.52
75489;HTU21D;64069;46.396;48.102;2022-11-20T17:06:39;6.69;93.73